Time;durP1;ratioP1;P1;durP2;ratioP2;P2;SDS_P1;SDS_P2;PMS_P1;PMS_P2;Temp;Humidity;BMP_temperature;BMP_pressure;BME280_temperature;BME280_humidity;BME280_pressure;Samples;Min_cycle;Max_cycle;Signal;HPM_P1;HPM_P2
2022/04/15 00:02:24;;;;;;;;;;;;;;;;;;4964881;28;19948;-59
2022/04/15 00:04:50;;;;;;;;;;;;;;;;;;4958617;28;19936;-58
2022/04/15 00:07:15;;;;;;;;;;;;;;;;;;4967918;28;20513;-59
2022/04/15 00:09:41;;;;;;;;;;;;;;;;;;4960762;28;19914;-58
2022/04/15 00:12:10;;;;;;;;;;;;;;;;;;4963268;28;19914;-59
2022/04/15 00:14:36;;;;;;;;;;;;;;;;;;4965116;28;19926;-58
2022/04/15 00:17:01;;;;;;;;;;;;;;;;;;4962431;28;20290;-58
2022/04/15 00:19:26;;;;;;;;;;;;;;;;;;4961553;28;19917;-59
2022/04/15 00:21:52;;;;;;;;;;;;;;;;;;4960148;28;19949;-59
2022/04/15 00:24:17;;;;;;;;;;;;;;;;;;4964027;28;19998;-58
2022/04/15 00:26:42;;;;;;;;;;;;;;;;;;4964543;28;19953;-59
2022/04/15 00:29:08;;;;;;;;;;;;;;;;;;4964356;28;19914;-58
2022/04/15 00:31:34;;;;;;;;;;;;;;;;;;4963343;28;19915;-58
2022/04/15 00:33:59;;;;;;;;;;;;;;;;;;4965462;28;19918;-59
2022/04/15 00:36:24;;;;;;;;;;;;;;;;;;4964765;28;20390;-58
2022/04/15 00:38:50;;;;;;;;;;;;;;;;;;4968212;28;19914;-58
2022/04/15 00:41:15;;;;;;;;;;;;;;;;;;4964529;28;20383;-58
2022/04/15 00:43:41;;;;;;;;;;;;;;;;;;4966720;28;19946;-58
2022/04/15 00:46:07;;;;;;;;;;;;;;;;;;4963946;28;19960;-58
2022/04/15 00:48:33;;;;;;;;;;;;;;;;;;4958301;28;19926;-58
2022/04/15 00:50:58;;;;;;;;;;;;;;;;;;4961438;28;19918;-58
2022/04/15 00:53:26;;;;;;;;;;;;;;;;;;4962791;28;19994;-59
2022/04/15 00:55:54;;;;;;;;;;;;;;;;;;4946571;28;20603;-58
2022/04/15 00:58:20;;;;;;;;;;;;;;;;;;4963052;28;19921;-58
2022/04/15 01:00:46;;;;;;;;;;;;;;;;;;4964029;28;19917;-58
2022/04/15 01:03:15;;;;;;;;;;;;;;;;;;4968848;28;19988;-58
2022/04/15 01:05:41;;;;;;;;;;;;;;;;;;4963921;28;19918;-58
2022/04/15 01:08:08;;;;;;;;;;;;;;;;;;4965983;28;19998;-59
2022/04/15 01:10:35;;;;;;;;;;;;;;;;;;4965834;28;19921;-58
2022/04/15 01:13:03;;;;;;;;;;;;;;;;;;4965022;28;20012;-58
2022/04/15 01:15:29;;;;;;;;;;;;;;;;;;4967654;28;19917;-58
2022/04/15 01:17:54;;;;;;;;;;;;;;;;;;4968864;28;19929;-58
2022/04/15 01:20:20;;;;;;;;;;;;;;;;;;4963902;28;19956;-58
2022/04/15 01:22:46;;;;;;;;;;;;;;;;;;4966501;28;20442;-58
2022/04/15 01:25:16;;;;;;;;;;;;;;;;;;4972118;28;19976;-58
2022/04/15 01:27:44;;;;;;;;;;;;;;;;;;4972280;28;19993;-59
2022/04/15 01:30:12;;;;;;;;;;;;;;;;;;4970946;28;19914;-59
2022/04/15 01:32:38;;;;;;;;;;;;;;;;;;4964556;28;19971;-58
2022/04/15 01:35:06;;;;;;;;;;;;;;;;;;4964027;28;19918;-59
2022/04/15 01:37:31;;;;;;;;;;;;;;;;;;4969378;28;19918;-59
2022/04/15 01:39:56;;;;;;;;;;;;;;;;;;4964712;28;19915;-59
2022/04/15 01:42:22;;;;;;;;;;;;;;;;;;4965820;28;20016;-59
2022/04/15 01:44:47;;;;;;;;;;;;;;;;;;4967997;28;19921;-58
2022/04/15 01:47:13;;;;;;;;;;;;;;;;;;4969547;28;19962;-58
2022/04/15 01:49:38;;;;;;;;;;;;;;;;;;4960235;28;19914;-58
2022/04/15 01:52:06;;;;;;;;;;;;;;;;;;4962273;28;20328;-57
2022/04/15 01:54:31;;;;;;;;;;;;;;;;;;4961288;28;19914;-58
2022/04/15 01:56:57;;;;;;;;;;;;;;;;;;4964683;28;19914;-58
2022/04/15 01:59:22;;;;;;;;;;;;;;;;;;4966828;28;20388;-58
2022/04/15 02:01:48;;;;;;;;;;;;;;;;;;4965225;28;20330;-58
2022/04/15 02:04:13;;;;;;;;;;;;;;;;;;4966407;28;20020;-58
2022/04/15 02:06:38;;;;;;;;;;;;;;;;;;4968135;28;20352;-58
2022/04/15 02:09:03;;;;;;;;;;;;;;;;;;4969091;28;19914;-58
2022/04/15 02:11:29;;;;;;;;;;;;;;;;;;4966827;28;20117;-59
2022/04/15 02:13:54;;;;;;;;;;;;;;;;;;4966036;28;19921;-59
2022/04/15 02:16:19;;;;;;;;;;;;;;;;;;4969352;28;19961;-59
2022/04/15 02:18:45;;;;;;;;;;;;;;;;;;4969439;28;19920;-58
2022/04/15 02:21:10;;;;;;;;;;;;;;;;;;4964686;28;19961;-59
2022/04/15 02:23:35;;;;;;;;;;;;;;;;;;4967867;28;20424;-59
2022/04/15 02:26:00;;;;;;;;;;;;;;;;;;4969896;28;19914;-59
2022/04/15 02:28:26;;;;;;;;;;;;;;;;;;4965896;28;19929;-59
2022/04/15 02:30:52;;;;;;;;;;;;;;;;;;4962589;28;19914;-59
2022/04/15 02:33:18;;;;;;;;;;;;;;;;;;4965653;28;20012;-59
2022/04/15 02:35:43;;;;;;;;;;;;;;;;;;4951379;28;20004;-59
2022/04/15 02:38:09;;;;;;;;;;;;;;;;;;4967016;28;19917;-59
2022/04/15 02:40:34;;;;;;;;;;;;;;;;;;4965108;28;19968;-59
2022/04/15 02:43:00;;;;;;;;;;;;;;;;;;4953632;28;19918;-59
2022/04/15 02:45:25;;;;;;;;;;;;;;;;;;4971092;28;19914;-59
2022/04/15 02:47:50;;;;;;;;;;;;;;;;;;4968927;28;19914;-58
2022/04/15 02:50:16;;;;;;;;;;;;;;;;;;4965700;28;20085;-57
2022/04/15 02:52:41;;;;;;;;;;;;;;;;;;4967871;28;19967;-58
2022/04/15 02:55:07;;;;;;;;;;;;;;;;;;4962296;28;19984;-58
2022/04/15 02:57:32;;;;;;;;;;;;;;;;;;4961366;28;19917;-58
2022/04/15 02:59:58;;;;;;;;;;;;;;;;;;4963170;28;20508;-58
2022/04/15 03:02:24;;;;;;;;;;;;;;;;;;4960843;28;20296;-58
2022/04/15 03:04:49;;;;;;;;;;;;;;;;;;4962043;28;19940;-59
2022/04/15 03:07:14;;;;;;;;;;;;;;;;;;4971724;28;19949;-59
2022/04/15 03:09:40;;;;;;;;;;;;;;;;;;4947977;28;20344;-58
2022/04/15 03:12:05;;;;;;;;;;;;;;;;;;4962573;28;19921;-57
2022/04/15 03:14:30;;;;;;;;;;;;;;;;;;4964667;28;19973;-59
2022/04/15 03:16:56;;;;;;;;;;;;;;;;;;4953909;28;19932;-59
2022/04/15 03:19:21;;;;;;;;;;;;;;;;;;4967549;28;19918;-58
2022/04/15 03:21:46;;;;;;;;;;;;;;;;;;4966048;28;19920;-58
2022/04/15 03:24:11;;;;;;;;;;;;;;;;;;4959599;28;19973;-59
2022/04/15 03:26:37;;;;;;;;;;;;;;;;;;4965420;28;19925;-58
2022/04/15 03:29:02;;;;;;;;;;;;;;;;;;4966671;28;19981;-59
2022/04/15 03:31:27;;;;;;;;;;;;;;;;;;4965489;28;19918;-59
2022/04/15 03:33:53;;;;;;;;;;;;;;;;;;4963111;28;19924;-59
2022/04/15 03:36:18;;;;;;;;;;;;;;;;;;4964327;28;20449;-59
2022/04/15 03:38:44;;;;;;;;;;;;;;;;;;4963675;28;19921;-59
2022/04/15 03:41:09;;;;;;;;;;;;;;;;;;4967999;28;19968;-59
2022/04/15 03:43:34;;;;;;;;;;;;;;;;;;4964282;28;19918;-59
2022/04/15 03:46:00;;;;;;;;;;;;;;;;;;4957423;28;20468;-58
2022/04/15 03:48:25;;;;;;;;;;;;;;;;;;4966202;28;19961;-59
2022/04/15 03:50:51;;;;;;;;;;;;;;;;;;4963331;28;19922;-59
2022/04/15 03:53:16;;;;;;;;;;;;;;;;;;4969044;28;20443;-58
2022/04/15 03:55:41;;;;;;;;;;;;;;;;;;4969765;28;19934;-59
2022/04/15 03:58:07;;;;;;;;;;;;;;;;;;4960932;28;19914;-59
2022/04/15 04:00:32;;;;;;;;;;;;;;;;;;4966657;28;20431;-59
2022/04/15 04:02:57;;;;;;;;;;;;;;;;;;4964936;28;19918;-58
2022/04/15 04:05:23;;;;;;;;;;;;;;;;;;4963156;28;19914;-59
2022/04/15 04:07:49;;;;;;;;;;;;;;;;;;4969460;28;19914;-58
2022/04/15 04:10:15;;;;;;;;;;;;;;;;;;4967293;28;20291;-59
2022/04/15 04:12:41;;;;;;;;;;;;;;;;;;4966515;28;19914;-59
2022/04/15 04:15:06;;;;;;;;;;;;;;;;;;4963386;28;19945;-59
2022/04/15 04:17:32;;;;;;;;;;;;;;;;;;4960366;28;19918;-59
2022/04/15 04:19:58;;;;;;;;;;;;;;;;;;4962244;28;20237;-59
2022/04/15 04:22:28;;;;;;;;;;;;;;;;;;4964917;28;19921;-59
2022/04/15 04:24:53;;;;;;;;;;;;;;;;;;4964854;28;20391;-59
2022/04/15 04:27:18;;;;;;;;;;;;;;;;;;4964207;28;20037;-59
2022/04/15 04:29:43;;;;;;;;;;;;;;;;;;4966392;28;19921;-59
2022/04/15 04:32:09;;;;;;;;;;;;;;;;;;4966393;28;20330;-59
2022/04/15 04:34:34;;;;;;;;;;;;;;;;;;4964299;28;20054;-59
2022/04/15 04:36:59;;;;;;;;;;;;;;;;;;4963800;28;19914;-58
2022/04/15 04:39:27;;;;;;;;;;;;;;;;;;4967389;28;19946;-58
2022/04/15 04:41:53;;;;;;;;;;;;;;;;;;4954043;28;19924;-58
2022/04/15 04:44:18;;;;;;;;;;;;;;;;;;4978490;28;20417;-58
2022/04/15 04:46:44;;;;;;;;;;;;;;;;;;4976421;28;20433;-58
2022/04/15 04:49:09;;;;;;;;;;;;;;;;;;4970210;28;19914;-58
2022/04/15 04:51:34;;;;;;;;;;;;;;;;;;4965454;28;20024;-59
2022/04/15 04:54:00;;;;;;;;;;;;;;;;;;4970747;28;19918;-59
2022/04/15 04:56:26;;;;;;;;;;;;;;;;;;4964739;28;19921;-57
2022/04/15 04:58:52;;;;;;;;;;;;;;;;;;4972334;28;19917;-58
2022/04/15 05:01:17;;;;;;;;;;;;;;;;;;4969595;28;20280;-59
2022/04/15 05:03:42;;;;;;;;;;;;;;;;;;4973274;28;20378;-58
2022/04/15 05:06:08;;;;;;;;;;;;;;;;;;4963169;28;19992;-58
2022/04/15 05:08:33;;;;;;;;;;;;;;;;;;4971458;28;19918;-59
2022/04/15 05:10:58;;;;;;;;;;;;;;;;;;4964702;28;19914;-59
2022/04/15 05:13:24;;;;;;;;;;;;;;;;;;4966385;28;20366;-59
2022/04/15 05:15:49;;;;;;;;;;;;;;;;;;4969219;28;19914;-58
2022/04/15 05:18:14;;;;;;;;;;;;;;;;;;4971857;28;20366;-59
2022/04/15 05:20:40;;;;;;;;;;;;;;;;;;4969155;28;19914;-59
2022/04/15 05:23:05;;;;;;;;;;;;;;;;;;4971136;28;20303;-59
2022/04/15 05:25:30;;;;;;;;;;;;;;;;;;4964889;28;19922;-59
2022/04/15 05:27:58;;;;;;;;;;;;;;;;;;4969697;28;19921;-59
2022/04/15 05:30:24;;;;;;;;;;;;;;;;;;4971404;28;19913;-59
2022/04/15 05:32:49;;;;;;;;;;;;;;;;;;4968378;28;20304;-59
2022/04/15 05:35:14;;;;;;;;;;;;;;;;;;4975448;28;19960;-59
2022/04/15 05:37:39;;;;;;;;;;;;;;;;;;4959276;28;19915;-59
2022/04/15 05:40:05;;;;;;;;;;;;;;;;;;4961538;28;19980;-59
2022/04/15 05:42:30;;;;;;;;;;;;;;;;;;4969921;28;19925;-59
2022/04/15 05:44:55;;;;;;;;;;;;;;;;;;4963581;28;19920;-59
2022/04/15 05:47:21;;;;;;;;;;;;;;;;;;4964096;28;19922;-59
2022/04/15 05:49:46;;;;;;;;;;;;;;;;;;4967459;28;19937;-59
2022/04/15 05:52:11;;;;;;;;;;;;;;;;;;4967743;28;20289;-59
2022/04/15 05:54:37;;;;;;;;;;;;;;;;;;4966306;28;19953;-58
2022/04/15 05:57:02;;;;;;;;;;;;;;;;;;4969512;28;19918;-59
2022/04/15 05:59:27;;;;;;;;;;;;;;;;;;4972137;28;20002;-59
2022/04/15 06:01:52;;;;;;;;;;;;;;;;;;4967898;28;20276;-59
2022/04/15 06:04:18;;;;;;;;;;;;;;;;;;4964740;28;19922;-59
2022/04/15 06:06:43;;;;;;;;;;;;;;;;;;4966188;28;19977;-59
2022/04/15 06:09:08;;;;;;;;;;;;;;;;;;4970288;28;19914;-59
2022/04/15 06:11:34;;;;;;;;;;;;;;;;;;4963856;28;19918;-59
2022/04/15 06:14:01;;;;;;;;;;;;;;;;;;4971326;28;19917;-59
2022/04/15 06:16:32;;;;;;;;;;;;;;;;;;4966234;28;19914;-59
2022/04/15 06:18:57;;;;;;;;;;;;;;;;;;4963302;28;19969;-58
2022/04/15 06:21:23;;;;;;;;;;;;;;;;;;4970415;28;19922;-59
2022/04/15 06:23:48;;;;;;;;;;;;;;;;;;4968765;28;19918;-59
2022/04/15 06:26:13;;;;;;;;;;;;;;;;;;4969534;28;19917;-58
2022/04/15 06:28:38;;;;;;;;;;;;;;;;;;4966301;28;19998;-59
2022/04/15 06:31:04;;;;;;;;;;;;;;;;;;4970519;28;20340;-58
2022/04/15 06:33:29;;;;;;;;;;;;;;;;;;4966513;28;19915;-59
2022/04/15 06:35:54;;;;;;;;;;;;;;;;;;4967745;28;20004;-58
2022/04/15 06:38:20;;;;;;;;;;;;;;;;;;4954240;28;19921;-59
2022/04/15 06:40:45;;;;;;;;;;;;;;;;;;4949127;28;19944;-59
2022/04/15 06:43:10;;;;;;;;;;;;;;;;;;4962372;28;20045;-59
2022/04/15 06:45:36;;;;;;;;;;;;;;;;;;4959202;28;20068;-58
2022/04/15 06:48:01;;;;;;;;;;;;;;;;;;4962086;28;19914;-58
2022/04/15 06:50:26;;;;;;;;;;;;;;;;;;4968411;28;20296;-59
2022/04/15 06:52:52;;;;;;;;;;;;;;;;;;4969549;28;20405;-59
2022/04/15 06:55:17;;;;;;;;;;;;;;;;;;4964888;28;20008;-59
2022/04/15 06:57:43;;;;;;;;;;;;;;;;;;4960647;28;19917;-60
2022/04/15 07:00:11;;;;;;;;;;;;;;;;;;4968358;28;19925;-59
2022/04/15 07:02:36;;;;;;;;;;;;;;;;;;4968108;28;20315;-59
2022/04/15 07:05:02;;;;;;;;;;;;;;;;;;4969648;28;19921;-59
2022/04/15 07:07:28;;;;;;;;;;;;;;;;;;4958881;28;19922;-59
2022/04/15 07:09:53;;;;;;;;;;;;;;;;;;4969693;28;19918;-59
2022/04/15 07:12:18;;;;;;;;;;;;;;;;;;4965224;28;19968;-59
2022/04/15 07:14:44;;;;;;;;;;;;;;;;;;4966461;28;20009;-59
2022/04/15 07:17:09;;;;;;;;;;;;;;;;;;4964580;28;20435;-59
2022/04/15 07:19:34;;;;;;;;;;;;;;;;;;4967147;28;19914;-59
2022/04/15 07:21:59;;;;;;;;;;;;;;;;;;4965098;28;20415;-59
2022/04/15 07:24:27;;;;;;;;;;;;;;;;;;4966896;28;19941;-59
2022/04/15 07:26:52;;;;;;;;;;;;;;;;;;4971641;28;20349;-60
2022/04/15 07:29:19;;;;;;;;;;;;;;;;;;4967032;28;19970;-61
2022/04/15 07:31:44;;;;;;;;;;;;;;;;;;4962897;28;19918;-60
2022/04/15 07:34:09;;;;;;;;;;;;;;;;;;4964346;28;19936;-60
2022/04/15 07:39:00;;;;;;;;;;;;;;;;;;4964722;28;19913;-60
2022/04/15 07:41:26;;;;;;;;;;;;;;;;;;4964807;28;19922;-60
2022/04/15 07:43:51;;;;;;;;;;;;;;;;;;4963346;28;20056;-60
2022/04/15 07:46:16;;;;;;;;;;;;;;;;;;4964588;28;19964;-63
2022/04/15 07:48:42;;;;;;;;;;;;;;;;;;4968873;28;19922;-60
2022/04/15 07:51:07;;;;;;;;;;;;;;;;;;4964165;28;19962;-60
2022/04/15 07:53:33;;;;;;;;;;;;;;;;;;4959751;28;19933;-60
2022/04/15 07:55:58;;;;;;;;;;;;;;;;;;4960199;28;19921;-61
2022/04/15 07:58:23;;;;;;;;;;;;;;;;;;4964704;28;19918;-61
2022/04/15 08:00:49;;;;;;;;;;;;;;;;;;4965544;28;19914;-61
2022/04/15 08:03:15;;;;;;;;;;;;;;;;;;4965002;28;20021;-61
2022/04/15 08:05:40;;;;;;;;;;;;;;;;;;4963833;28;20005;-60
2022/04/15 08:08:06;;;;;;;;;;;;;;;;;;4965957;28;21478;-61
2022/04/15 08:10:31;;;;;;;;;;;;;;;;;;4969262;28;20403;-60
2022/04/15 08:12:56;;;;;;;;;;;;;;;;;;4965558;28;19914;-60
2022/04/15 08:15:22;;;;;;;;;;;;;;;;;;4963882;28;19943;-61
2022/04/15 08:17:47;;;;;;;;;;;;;;;;;;4963862;28;19914;-60
2022/04/15 08:20:14;;;;;;;;;;;;;;;;;;4965343;28;20356;-60
2022/04/15 08:22:39;;;;;;;;;;;;;;;;;;4966351;28;20451;-60
2022/04/15 08:25:05;;;;;;;;;;;;;;;;;;4963875;28;20001;-60
2022/04/15 08:27:30;;;;;;;;;;;;;;;;;;4967717;28;19930;-60
2022/04/15 08:29:59;;;;;;;;;;;;;;;;;;4967919;28;19934;-64
2022/04/15 08:32:32;;;;;;;;;;;;;;;;;;4967289;28;19957;-63
2022/04/15 08:34:58;;;;;;;;;;;;;;;;;;4961212;28;19917;-59
2022/04/15 08:37:23;;;;;;;;;;;;;;;;;;4966206;28;20296;-60
2022/04/15 08:39:49;;;;;;;;;;;;;;;;;;4969734;28;20000;-60
2022/04/15 08:42:14;;;;;;;;;;;;;;;;;;4961829;28;19918;-60
2022/04/15 08:44:40;;;;;;;;;;;;;;;;;;4965042;28;19918;-61
2022/04/15 08:47:07;;;;;;;;;;;;;;;;;;4961594;28;19914;-60
2022/04/15 08:49:34;;;;;;;;;;;;;;;;;;4954400;28;20037;-60
2022/04/15 08:52:00;;;;;;;;;;;;;;;;;;4963070;28;19926;-59
2022/04/15 08:54:25;;;;;;;;;;;;;;;;;;4955654;28;20049;-60
2022/04/15 08:56:54;;;;;;;;;;;;;;;;;;4970431;28;19918;-64
2022/04/15 08:59:21;;;;;;;;;;;;;;;;;;4968312;28;20134;-62
2022/04/15 09:01:47;;;;;;;;;;;;;;;;;;4947823;28;19937;-64
2022/04/15 09:04:13;;;;;;;;;;;;;;;;;;4945235;28;19918;-61
2022/04/15 09:06:41;;;;;;;;;;;;;;;;;;4963134;28;20264;-60
2022/04/15 09:09:12;;;;;;;;;;;;;;;;;;4956873;28;19915;-60
2022/04/15 09:11:39;;;;;;;;;;;;;;;;;;4963021;28;19940;-60
2022/04/15 09:14:09;;;;;;;;;;;;;;;;;;4968861;28;19921;-59
2022/04/15 09:16:52;;;;;;;;;;;;;;;;;;4964658;28;19910;-61
2022/04/15 09:19:18;;;;;;;;;;;;;;;;;;4961987;28;20325;-60
2022/04/15 09:21:54;;;;;;;;;;;;;;;;;;4965078;28;19918;-61
2022/04/15 09:24:26;;;;;;;;;;;;;;;;;;4967003;28;19914;-60
2022/04/15 09:26:53;;;;;;;;;;;;;;;;;;4968737;28;19922;-60
2022/04/15 09:29:21;;;;;;;;;;;;;;;;;;4966044;28;20285;-60
2022/04/15 09:31:47;;;;;;;;;;;;;;;;;;4965485;28;20017;-61
2022/04/15 09:34:12;;;;;;;;;;;;;;;;;;4971198;28;20009;-62
2022/04/15 09:36:38;;;;;;;;;;;;;;;;;;4964647;28;19910;-60
2022/04/15 09:39:11;;;;;;;;;;;;;;;;;;4964596;28;20297;-59
2022/04/15 09:41:40;;;;;;;;;;;;;;;;;;4965148;28;20378;-61
2022/04/15 09:44:06;;;;;;;;;;;;;;;;;;4962166;28;20009;-60
2022/04/15 09:46:31;;;;;;;;;;;;;;;;;;4964483;28;20006;-58
2022/04/15 09:48:58;;;;;;;;;;;;;;;;;;4962030;28;19914;-59
2022/04/15 09:51:23;;;;;;;;;;;;;;;;;;4964159;28;19922;-57
2022/04/15 09:53:51;;;;;;;;;;;;;;;;;;4968608;28;20376;-59
2022/04/15 09:56:17;;;;;;;;;;;;;;;;;;4969651;28;19914;-60
2022/04/15 09:58:43;;;;;;;;;;;;;;;;;;4967901;28;20384;-59
2022/04/15 10:01:09;;;;;;;;;;;;;;;;;;4968594;28;20395;-60
2022/04/15 10:03:35;;;;;;;;;;;;;;;;;;4966224;28;19943;-59
2022/04/15 10:06:00;;;;;;;;;;;;;;;;;;4964300;28;20000;-59
2022/04/15 10:08:26;;;;;;;;;;;;;;;;;;4969994;28;20033;-59
2022/04/15 10:10:52;;;;;;;;;;;;;;;;;;4967063;28;19956;-59
2022/04/15 10:13:20;;;;;;;;;;;;;;;;;;4965341;28;19914;-59
2022/04/15 10:15:47;;;;;;;;;;;;;;;;;;4967101;28;20032;-59
2022/04/15 10:18:13;;;;;;;;;;;;;;;;;;4972608;28;20245;-59
2022/04/15 10:20:38;;;;;;;;;;;;;;;;;;4965706;28;19921;-59
2022/04/15 10:23:06;;;;;;;;;;;;;;;;;;4965887;28;19919;-60
2022/04/15 10:25:32;;;;;;;;;;;;;;;;;;4969655;28;22000;-59
2022/04/15 10:28:06;;;;;;;;;;;;;;;;;;4965917;28;19914;-60
2022/04/15 10:30:31;;;;;;;;;;;;;;;;;;4967700;28;19918;-59
2022/04/15 10:32:59;;;;;;;;;;;;;;;;;;4975680;28;19936;-58
2022/04/15 10:35:28;;;;;;;;;;;;;;;;;;4974224;28;19914;-58
2022/04/15 10:37:54;;;;;;;;;;;;;;;;;;4969620;28;20277;-58
2022/04/15 10:40:22;;;;;;;;;;;;;;;;;;4947333;28;19929;-59
2022/04/15 10:42:48;;;;;;;;;;;;;;;;;;4968011;28;19962;-59
2022/04/15 10:45:26;;;;;;;;;;;;;;;;;;4955376;28;20328;-59
2022/04/15 10:47:58;;;;;;;;;;;;;;;;;;4968894;28;20499;-59
2022/04/15 10:50:26;;;;;;;;;;;;;;;;;;4971621;28;20012;-59
2022/04/15 10:52:51;;;;;;;;;;;;;;;;;;4962074;28;19921;-58
2022/04/15 10:55:16;;;;;;;;;;;;;;;;;;4969651;28;19914;-59
2022/04/15 10:57:48;;;;;;;;;;;;;;;;;;4965868;28;20004;-60
2022/04/15 11:02:57;;;;;;;;;;;;;;;;;;4966380;28;19925;-60
2022/04/15 11:05:41;;;;;;;;;;;;;;;;;;4969628;28;19922;-60
2022/04/15 11:08:09;;;;;;;;;;;;;;;;;;4963413;28;19982;-60
2022/04/15 11:10:40;;;;;;;;;;;;;;;;;;4968645;28;19914;-60
2022/04/15 11:13:10;;;;;;;;;;;;;;;;;;4967484;28;19914;-59
2022/04/15 11:15:54;;;;;;;;;;;;;;;;;;4968747;28;20414;-60
2022/04/15 11:18:20;;;;;;;;;;;;;;;;;;4966208;28;19925;-60
2022/04/15 11:20:45;;;;;;;;;;;;;;;;;;4965437;28;19913;-61
2022/04/15 11:23:11;;;;;;;;;;;;;;;;;;4974407;28;19918;-60
2022/04/15 11:25:43;;;;;;;;;;;;;;;;;;4967622;28;20022;-59
2022/04/15 11:28:08;;;;;;;;;;;;;;;;;;4963734;28;19914;-60
2022/04/15 11:30:33;;;;;;;;;;;;;;;;;;4963046;28;19969;-60
2022/04/15 11:33:03;;;;;;;;;;;;;;;;;;4965007;28;20339;-60
2022/04/15 11:35:33;;;;;;;;;;;;;;;;;;4960481;28;19914;-61
2022/04/15 11:38:03;;;;;;;;;;;;;;;;;;4961457;28;19910;-60
2022/04/15 11:40:36;;;;;;;;;;;;;;;;;;4957706;28;20013;-60
2022/04/15 11:43:05;;;;;;;;;;;;;;;;;;4970010;28;19933;-60
2022/04/15 11:45:41;;;;;;;;;;;;;;;;;;4964544;28;20384;-60
2022/04/15 11:48:15;;;;;;;;;;;;;;;;;;4968903;28;20427;-61
2022/04/15 11:50:41;;;;;;;;;;;;;;;;;;4965539;28;19964;-59
2022/04/15 11:53:06;;;;;;;;;;;;;;;;;;4965465;28;19954;-60
2022/04/15 11:55:33;;;;;;;;;;;;;;;;;;4968462;28;20427;-61
2022/04/15 11:57:59;;;;;;;;;;;;;;;;;;4962306;28;19929;-60
2022/04/15 12:00:25;;;;;;;;;;;;;;;;;;4965574;28;19933;-59
2022/04/15 12:02:58;;;;;;;;;;;;;;;;;;4968162;28;20045;-59
2022/04/15 12:05:26;;;;;;;;;;;;;;;;;;4969960;28;19918;-60
2022/04/15 12:07:51;;;;;;;;;;;;;;;;;;4966369;28;19929;-60
2022/04/15 12:10:17;;;;;;;;;;;;;;;;;;4964001;28;19918;-59
2022/04/15 12:12:42;;;;;;;;;;;;;;;;;;4973823;28;19921;-59
2022/04/15 12:15:08;;;;;;;;;;;;;;;;;;4967261;28;19920;-60
2022/04/15 12:17:33;;;;;;;;;;;;;;;;;;4967385;28;20392;-61
2022/04/15 12:19:59;;;;;;;;;;;;;;;;;;4967375;28;19915;-60
2022/04/15 12:22:24;;;;;;;;;;;;;;;;;;4962591;28;19961;-61
2022/04/15 12:24:49;;;;;;;;;;;;;;;;;;4963948;28;19922;-60
2022/04/15 12:27:16;;;;;;;;;;;;;;;;;;4962158;28;20023;-61
2022/04/15 12:29:48;;;;;;;;;;;;;;;;;;4961786;28;19914;-61
2022/04/15 12:32:14;;;;;;;;;;;;;;;;;;4957818;28;19997;-61
2022/04/15 12:34:39;;;;;;;;;;;;;;;;;;4966258;28;20009;-59
2022/04/15 12:37:04;;;;;;;;;;;;;;;;;;4957802;28;20402;-60
2022/04/15 12:39:30;;;;;;;;;;;;;;;;;;4963282;28;19914;-60
2022/04/15 12:41:55;;;;;;;;;;;;;;;;;;4962908;28;19969;-61
2022/04/15 12:44:23;;;;;;;;;;;;;;;;;;4958005;28;20013;-61
2022/04/15 12:46:54;;;;;;;;;;;;;;;;;;4969582;28;19914;-61
2022/04/15 12:49:25;;;;;;;;;;;;;;;;;;4960793;28;20017;-61
2022/04/15 12:51:51;;;;;;;;;;;;;;;;;;4964589;28;20012;-61
2022/04/15 12:54:16;;;;;;;;;;;;;;;;;;4960034;28;19918;-61
2022/04/15 12:57:02;;;;;;;;;;;;;;;;;;4966295;28;20372;-60
2022/04/15 12:59:28;;;;;;;;;;;;;;;;;;4966518;28;19914;-60
2022/04/15 13:01:53;;;;;;;;;;;;;;;;;;4969272;28;19973;-61
2022/04/15 13:04:18;;;;;;;;;;;;;;;;;;4966459;28;19922;-61
2022/04/15 13:06:43;;;;;;;;;;;;;;;;;;4968407;28;19953;-61
2022/04/15 13:09:09;;;;;;;;;;;;;;;;;;4965673;28;20000;-60
2022/04/15 13:11:34;;;;;;;;;;;;;;;;;;4966066;28;19918;-61
2022/04/15 13:14:00;;;;;;;;;;;;;;;;;;4968274;28;20384;-60
2022/04/15 13:16:26;;;;;;;;;;;;;;;;;;4965635;28;20352;-60
2022/04/15 13:18:51;;;;;;;;;;;;;;;;;;4967334;28;19925;-59
2022/04/15 13:21:17;;;;;;;;;;;;;;;;;;4967813;28;19914;-59
2022/04/15 13:23:42;;;;;;;;;;;;;;;;;;4970644;28;19946;-59
2022/04/15 13:26:08;;;;;;;;;;;;;;;;;;4966570;28;20264;-59
2022/04/15 13:28:33;;;;;;;;;;;;;;;;;;4962306;28;19918;-59
2022/04/15 13:30:58;;;;;;;;;;;;;;;;;;4970982;28;20319;-60
2022/04/15 13:33:24;;;;;;;;;;;;;;;;;;4960929;28;19922;-59
2022/04/15 13:35:50;;;;;;;;;;;;;;;;;;4971486;28;19918;-60
2022/04/15 13:38:15;;;;;;;;;;;;;;;;;;4969310;28;20102;-60
2022/04/15 13:40:44;;;;;;;;;;;;;;;;;;4964491;28;19914;-60
2022/04/15 13:43:09;;;;;;;;;;;;;;;;;;4961641;28;19919;-60
2022/04/15 13:45:35;;;;;;;;;;;;;;;;;;4958017;28;19922;-60
2022/04/15 13:48:00;;;;;;;;;;;;;;;;;;4963006;28;19914;-60
2022/04/15 13:50:25;;;;;;;;;;;;;;;;;;4970615;28;19932;-60
2022/04/15 13:58:18;;;;;;;;;;;;;;;;;;4961680;28;19999;-59
2022/04/15 14:00:44;;;;;;;;;;;;;;;;;;4962975;28;19978;-59
2022/04/15 14:03:09;;;;;;;;;;;;;;;;;;4963595;28;20076;-61
2022/04/15 14:05:34;;;;;;;;;;;;;;;;;;4965253;28;19914;-60
2022/04/15 14:07:59;;;;;;;;;;;;;;;;;;4965550;28;20348;-62
2022/04/15 14:10:25;;;;;;;;;;;;;;;;;;4965260;28;19921;-61
2022/04/15 14:12:50;;;;;;;;;;;;;;;;;;4962564;28;19914;-61
2022/04/15 14:15:18;;;;;;;;;;;;;;;;;;4963731;28;19914;-61
2022/04/15 14:17:43;;;;;;;;;;;;;;;;;;4966781;28;19972;-60
2022/04/15 14:20:09;;;;;;;;;;;;;;;;;;4964395;28;20052;-61
2022/04/15 14:22:34;;;;;;;;;;;;;;;;;;4964858;28;19921;-61
2022/04/15 14:25:00;;;;;;;;;;;;;;;;;;4959443;28;20209;-60
2022/04/15 14:27:25;;;;;;;;;;;;;;;;;;4965156;28;19980;-60
2022/04/15 14:29:54;;;;;;;;;;;;;;;;;;4966248;28;20356;-59
2022/04/15 14:32:19;;;;;;;;;;;;;;;;;;4964518;28;19914;-59
2022/04/15 14:34:45;;;;;;;;;;;;;;;;;;4963573;28;19922;-60
2022/04/15 14:37:11;;;;;;;;;;;;;;;;;;4964725;28;19922;-60
2022/04/15 14:39:36;;;;;;;;;;;;;;;;;;4964790;28;20441;-61
2022/04/15 14:42:01;;;;;;;;;;;;;;;;;;4962944;28;19918;-60
2022/04/15 14:44:27;;;;;;;;;;;;;;;;;;4970427;28;19921;-60
2022/04/15 14:46:52;;;;;;;;;;;;;;;;;;4968934;28;20279;-60
2022/04/15 14:49:17;;;;;;;;;;;;;;;;;;4963427;28;20339;-61
2022/04/15 14:51:43;;;;;;;;;;;;;;;;;;4964973;28;20290;-59
2022/04/15 14:54:09;;;;;;;;;;;;;;;;;;4969034;28;19914;-60
2022/04/15 14:56:34;;;;;;;;;;;;;;;;;;4966972;28;19914;-60
2022/04/15 14:59:00;;;;;;;;;;;;;;;;;;4967018;28;19914;-59
2022/04/15 15:01:25;;;;;;;;;;;;;;;;;;4968840;28;19914;-59
2022/04/15 15:03:50;;;;;;;;;;;;;;;;;;4962461;28;19926;-60
2022/04/15 15:06:16;;;;;;;;;;;;;;;;;;4966248;28;19945;-60
2022/04/15 15:08:41;;;;;;;;;;;;;;;;;;4969770;28;20347;-60
2022/04/15 15:11:06;;;;;;;;;;;;;;;;;;4966463;28;19937;-60
2022/04/15 15:13:32;;;;;;;;;;;;;;;;;;4965830;28;19914;-61
2022/04/15 15:15:57;;;;;;;;;;;;;;;;;;4963612;28;19921;-60
2022/04/15 15:18:23;;;;;;;;;;;;;;;;;;4963017;28;19922;-60
2022/04/15 15:20:48;;;;;;;;;;;;;;;;;;4965934;28;19953;-60
2022/04/15 15:23:14;;;;;;;;;;;;;;;;;;4962914;28;19922;-60
2022/04/15 15:31:09;;;;;;;;;;;;;;;;;;4970483;28;20001;-60
2022/04/15 15:33:34;;;;;;;;;;;;;;;;;;4961103;28;20053;-60
2022/04/15 15:36:00;;;;;;;;;;;;;;;;;;4961896;28;20018;-60
2022/04/15 15:38:25;;;;;;;;;;;;;;;;;;4957104;28;19914;-58
2022/04/15 15:40:51;;;;;;;;;;;;;;;;;;4957277;28;19917;-61
2022/04/15 15:43:17;;;;;;;;;;;;;;;;;;4963986;28;20380;-60
2022/04/15 15:45:42;;;;;;;;;;;;;;;;;;4969513;28;19921;-61
2022/04/15 15:48:09;;;;;;;;;;;;;;;;;;4963648;28;20449;-61
2022/04/15 15:50:38;;;;;;;;;;;;;;;;;;4958423;28;19914;-60
2022/04/15 15:53:04;;;;;;;;;;;;;;;;;;4959984;28;20400;-60
2022/04/15 15:55:31;;;;;;;;;;;;;;;;;;4965024;28;19921;-60
2022/04/15 15:57:56;;;;;;;;;;;;;;;;;;4957152;28;19921;-60
2022/04/15 16:00:22;;;;;;;;;;;;;;;;;;4963706;28;19914;-60
2022/04/15 16:02:48;;;;;;;;;;;;;;;;;;4963844;28;19929;-60
2022/04/15 16:05:14;;;;;;;;;;;;;;;;;;4963772;28;20192;-59
2022/04/15 16:07:40;;;;;;;;;;;;;;;;;;4965583;28;19914;-59
2022/04/15 16:10:06;;;;;;;;;;;;;;;;;;4964252;28;19996;-59
2022/04/15 16:12:32;;;;;;;;;;;;;;;;;;4958117;28;20396;-60
2022/04/15 16:14:57;;;;;;;;;;;;;;;;;;4964490;28;19914;-60
2022/04/15 16:17:23;;;;;;;;;;;;;;;;;;4969620;28;19936;-59
2022/04/15 16:19:48;;;;;;;;;;;;;;;;;;4958986;28;19954;-61
2022/04/15 16:22:13;;;;;;;;;;;;;;;;;;4964809;28;20017;-61
2022/04/15 16:24:39;;;;;;;;;;;;;;;;;;4961997;28;19918;-61
2022/04/15 16:27:04;;;;;;;;;;;;;;;;;;4962448;28;19938;-62
2022/04/15 16:29:30;;;;;;;;;;;;;;;;;;4962188;28;19915;-61
2022/04/15 16:31:55;;;;;;;;;;;;;;;;;;4943678;28;19980;-60
2022/04/15 16:34:20;;;;;;;;;;;;;;;;;;4963207;28;20470;-59
2022/04/15 16:36:45;;;;;;;;;;;;;;;;;;4960747;28;20372;-60
2022/04/15 16:39:11;;;;;;;;;;;;;;;;;;4962928;28;19914;-61
2022/04/15 16:41:36;;;;;;;;;;;;;;;;;;4958313;28;19918;-59
2022/04/15 16:44:05;;;;;;;;;;;;;;;;;;4961724;28;21341;-59
2022/04/15 16:46:30;;;;;;;;;;;;;;;;;;4969412;28;19928;-59
2022/04/15 16:48:55;;;;;;;;;;;;;;;;;;4964894;28;20004;-59
2022/04/15 16:51:21;;;;;;;;;;;;;;;;;;4960535;28;19969;-60
2022/04/15 16:53:46;;;;;;;;;;;;;;;;;;4960786;28;19922;-59
2022/04/15 16:58:55;;;;;;;;;;;;;;;;;;4967258;28;19937;-59